Time;durP1;ratioP1;P1;durP2;ratioP2;P2;SDS_P1;SDS_P2;PMS_P1;PMS_P2;Temp;Humidity;BMP_temperature;BMP_pressure;BME280_temperature;BME280_humidity;BME280_pressure;Samples;Min_cycle;Max_cycle;Signal;HPM_P1;HPM_P2
2023/10/04 00:02:14;;;;;;;7.43;2.70;;;;;;;;;;5064579;28;20174;-78
2023/10/04 00:04:43;;;;;;;6.32;2.05;;;;;;;;;;5072110;28;20033;-77
2023/10/04 00:07:08;;;;;;;7.50;1.90;;;;;;;;;;5064178;28;20103;-77
2023/10/04 00:09:34;;;;;;;4.88;2.00;;;;;;;;;;5066315;28;20167;-77
2023/10/04 00:11:59;;;;;;;5.72;1.83;;;;;;;;;;5045237;28;20020;-77
2023/10/04 00:14:26;;;;;;;4.97;1.60;;;;;;;;;;5068418;28;20016;-77
2023/10/04 00:16:53;;;;;;;4.72;1.88;;;;;;;;;;5069125;28;20103;-77
2023/10/04 00:19:18;;;;;;;5.65;1.90;;;;;;;;;;5065882;28;20020;-77
2023/10/04 00:21:44;;;;;;;6.28;2.00;;;;;;;;;;5067192;28;20020;-77
2023/10/04 00:24:13;;;;;;;6.25;1.95;;;;;;;;;;5074150;28;20024;-77
2023/10/04 00:26:38;;;;;;;5.25;2.20;;;;;;;;;;5064780;28;20482;-77
2023/10/04 00:29:04;;;;;;;6.18;2.00;;;;;;;;;;5066246;28;20028;-77
2023/10/04 00:31:31;;;;;;;8.80;2.22;;;;;;;;;;5060212;28;20032;-83
2023/10/04 00:33:56;;;;;;;8.07;2.50;;;;;;;;;;5073455;28;20039;-83
2023/10/04 00:36:22;;;;;;;5.97;2.10;;;;;;;;;;5069413;28;20032;-82
2023/10/04 00:38:48;;;;;;;6.47;2.03;;;;;;;;;;5067319;28;20028;-83
2023/10/04 00:41:13;;;;;;;5.97;2.22;;;;;;;;;;5077428;28;20034;-81
2023/10/04 00:43:49;;;;;;;5.35;2.25;;;;;;;;;;5066297;28;20056;-83
2023/10/04 00:46:20;;;;;;;6.45;2.38;;;;;;;;;;5068191;28;20079;-82
2023/10/04 00:48:46;;;;;;;6.10;2.22;;;;;;;;;;5070696;28;20055;-82
2023/10/04 00:51:13;;;;;;;8.75;2.17;;;;;;;;;;5052425;28;20483;-77
2023/10/04 00:53:38;;;;;;;6.05;2.42;;;;;;;;;;5069124;28;20066;-77
2023/10/04 00:56:04;;;;;;;4.72;2.20;;;;;;;;;;5049798;28;20476;-77
2023/10/04 00:58:29;;;;;;;7.18;2.30;;;;;;;;;;5069199;28;20068;-79
2023/10/04 01:00:55;;;;;;;3.95;1.83;;;;;;;;;;5046932;28;20032;-79
2023/10/04 01:03:23;;;;;;;7.57;2.30;;;;;;;;;;5066780;28;20488;-79
2023/10/04 01:05:51;;;;;;;6.72;2.38;;;;;;;;;;5050462;28;20029;-79
2023/10/04 01:08:20;;;;;;;6.88;2.30;;;;;;;;;;5048703;28;20395;-79
2023/10/04 01:10:47;;;;;;;5.43;2.20;;;;;;;;;;5048326;28;20361;-79
2023/10/04 01:13:16;;;;;;;5.25;1.95;;;;;;;;;;5049299;28;20032;-78
2023/10/04 01:15:42;;;;;;;8.75;2.22;;;;;;;;;;5057680;28;20532;-79
2023/10/04 01:18:12;;;;;;;8.27;2.30;;;;;;;;;;5054102;28;20025;-78
2023/10/04 01:20:38;;;;;;;8.80;2.40;;;;;;;;;;5063176;28;20368;-79
2023/10/04 01:23:10;;;;;;;6.63;2.10;;;;;;;;;;5063270;28;20178;-82
2023/10/04 01:25:37;;;;;;;7.90;2.60;;;;;;;;;;5057226;28;20020;-83
2023/10/04 01:28:17;;;;;;;5.68;1.98;;;;;;;;;;5065101;28;20056;-82
2023/10/04 01:30:47;;;;;;;5.88;2.33;;;;;;;;;;5034886;28;20041;-76
2023/10/04 01:33:16;;;;;;;5.97;2.00;;;;;;;;;;5053180;28;20017;-76
2023/10/04 01:35:48;;;;;;;6.13;2.30;;;;;;;;;;5048647;28;20472;-75
2023/10/04 01:38:14;;;;;;;6.72;2.17;;;;;;;;;;5056632;28;20551;-78
2023/10/04 01:40:42;;;;;;;7.68;2.60;;;;;;;;;;5056399;28;20111;-77
2023/10/04 01:43:17;;;;;;;8.15;2.13;;;;;;;;;;5070483;28;20028;-76
2023/10/04 01:45:46;;;;;;;6.25;2.20;;;;;;;;;;5050796;28;20063;-77
2023/10/04 01:48:15;;;;;;;5.10;1.95;;;;;;;;;;5069383;28;20488;-75
2023/10/04 01:50:42;;;;;;;7.57;2.13;;;;;;;;;;5064809;28;20542;-76
2023/10/04 01:53:08;;;;;;;5.40;2.13;;;;;;;;;;5067584;28;20016;-75
2023/10/04 01:55:33;;;;;;;5.55;1.90;;;;;;;;;;5060968;28;20254;-76
2023/10/04 01:57:58;;;;;;;6.13;2.45;;;;;;;;;;5062603;28;20463;-76
2023/10/04 02:00:28;;;;;;;5.25;2.05;;;;;;;;;;5065047;28;20482;-75
2023/10/04 02:02:53;;;;;;;5.60;2.05;;;;;;;;;;5066389;28;20036;-78
2023/10/04 02:05:26;;;;;;;6.10;1.80;;;;;;;;;;5048443;28;20050;-75
2023/10/04 02:07:53;;;;;;;7.57;2.28;;;;;;;;;;5064507;28;20121;-75
2023/10/04 02:10:19;;;;;;;6.85;2.28;;;;;;;;;;5063987;28;20036;-77
2023/10/04 02:12:44;;;;;;;8.95;2.55;;;;;;;;;;5061116;28;20490;-76
2023/10/04 02:15:14;;;;;;;5.20;1.63;;;;;;;;;;5064334;28;20538;-76
2023/10/04 02:17:41;;;;;;;6.90;2.00;;;;;;;;;;5061885;28;20032;-76
2023/10/04 02:20:09;;;;;;;7.15;1.88;;;;;;;;;;5063889;28;20028;-78
2023/10/04 02:22:36;;;;;;;10.77;2.22;;;;;;;;;;5064979;28;20038;-78
2023/10/04 02:25:06;;;;;;;5.55;1.90;;;;;;;;;;5065527;28;20104;-77
2023/10/04 02:27:31;;;;;;;7.00;1.95;;;;;;;;;;5064819;28;20540;-77
2023/10/04 02:29:56;;;;;;;3.47;1.63;;;;;;;;;;5068471;28;20020;-77
2023/10/04 02:32:21;;;;;;;5.63;2.00;;;;;;;;;;5054554;28;20393;-77
2023/10/04 02:34:47;;;;;;;8.15;2.38;;;;;;;;;;5057474;28;20456;-77
2023/10/04 02:37:13;;;;;;;8.15;2.15;;;;;;;;;;5069156;28;20104;-77
2023/10/04 02:39:38;;;;;;;9.18;2.60;;;;;;;;;;5070102;28;20436;-77
2023/10/04 02:42:09;;;;;;;5.97;2.05;;;;;;;;;;5068919;28;20113;-77
2023/10/04 02:44:36;;;;;;;4.47;1.73;;;;;;;;;;5053472;28;20066;-77
2023/10/04 02:47:06;;;;;;;8.13;2.33;;;;;;;;;;5069171;28;20516;-77
2023/10/04 02:49:42;;;;;;;6.22;2.10;;;;;;;;;;5061253;28;20651;-75
2023/10/04 02:52:11;;;;;;;6.05;1.98;;;;;;;;;;5063413;28;20051;-77
2023/10/04 02:54:38;;;;;;;7.72;2.40;;;;;;;;;;5064726;28;20028;-75
2023/10/04 02:57:03;;;;;;;4.60;1.70;;;;;;;;;;5066422;28;20032;-75
2023/10/04 02:59:32;;;;;;;5.82;2.00;;;;;;;;;;5044702;28;20487;-75
2023/10/04 03:01:58;;;;;;;8.23;2.13;;;;;;;;;;5045082;28;20031;-75
2023/10/04 03:04:24;;;;;;;6.72;1.75;;;;;;;;;;5064538;28;20029;-78
2023/10/04 03:06:51;;;;;;;9.57;2.35;;;;;;;;;;5045523;28;20105;-78
2023/10/04 03:09:16;;;;;;;5.53;2.30;;;;;;;;;;5043892;28;20021;-75
2023/10/04 03:11:42;;;;;;;6.47;1.95;;;;;;;;;;5059917;28;20423;-78
2023/10/04 03:14:08;;;;;;;6.18;2.15;;;;;;;;;;5061899;28;20025;-75
2023/10/04 03:16:34;;;;;;;5.30;2.30;;;;;;;;;;5045049;28;20028;-75
2023/10/04 03:19:00;;;;;;;5.00;2.03;;;;;;;;;;5043814;28;20028;-75
2023/10/04 03:21:30;;;;;;;6.60;2.30;;;;;;;;;;5061414;28;20028;-75
2023/10/04 03:23:58;;;;;;;5.65;2.47;;;;;;;;;;5049548;28;20028;-75
2023/10/04 03:26:24;;;;;;;6.30;2.05;;;;;;;;;;5050886;28;20024;-75
2023/10/04 03:28:49;;;;;;;7.53;2.20;;;;;;;;;;5068407;28;20387;-75
2023/10/04 03:31:16;;;;;;;6.22;1.67;;;;;;;;;;5068235;28;20083;-76
2023/10/04 03:33:44;;;;;;;6.32;2.17;;;;;;;;;;5043658;28;20024;-75
2023/10/04 03:36:14;;;;;;;7.90;2.35;;;;;;;;;;5062594;28;20052;-75
2023/10/04 03:38:40;;;;;;;6.10;1.85;;;;;;;;;;5069971;28;20396;-75
2023/10/04 03:41:06;;;;;;;6.68;2.08;;;;;;;;;;5046422;28;20021;-75
2023/10/04 03:43:31;;;;;;;7.70;2.13;;;;;;;;;;5050328;28;20032;-75
2023/10/04 03:45:57;;;;;;;6.70;2.20;;;;;;;;;;5050993;28;20078;-77
2023/10/04 03:48:23;;;;;;;7.97;2.25;;;;;;;;;;5046293;28;20028;-77
2023/10/04 03:50:51;;;;;;;8.07;2.30;;;;;;;;;;5050582;28;20063;-75
2023/10/04 03:53:21;;;;;;;6.00;2.00;;;;;;;;;;5065397;28;20392;-75
2023/10/04 03:55:47;;;;;;;5.35;2.10;;;;;;;;;;5045526;28;20047;-76
2023/10/04 03:58:19;;;;;;;6.20;2.05;;;;;;;;;;5066185;28;20021;-76
2023/10/04 04:00:45;;;;;;;8.45;2.38;;;;;;;;;;5063308;28;20377;-78
2023/10/04 04:03:11;;;;;;;6.68;1.90;;;;;;;;;;5062189;28;20086;-79
2023/10/04 04:05:41;;;;;;;6.70;2.20;;;;;;;;;;5063375;28;20016;-78
2023/10/04 04:08:08;;;;;;;6.97;2.22;;;;;;;;;;5059178;28;20037;-78
2023/10/04 04:10:33;;;;;;;6.15;2.00;;;;;;;;;;5066393;28;20020;-78
2023/10/04 04:13:02;;;;;;;5.15;2.13;;;;;;;;;;5068940;28;20027;-77
2023/10/04 04:15:31;;;;;;;5.20;1.85;;;;;;;;;;5070039;28;20044;-77
2023/10/04 04:17:56;;;;;;;8.15;2.22;;;;;;;;;;5063461;28;20128;-77
2023/10/04 04:20:23;;;;;;;7.07;2.40;;;;;;;;;;5061387;28;20037;-78
2023/10/04 04:22:55;;;;;;;7.40;2.42;;;;;;;;;;5047837;28;20027;-77
2023/10/04 04:25:21;;;;;;;5.53;2.30;;;;;;;;;;5064350;28;20025;-77
2023/10/04 04:27:49;;;;;;;7.63;2.85;;;;;;;;;;5064602;28;20039;-77
2023/10/04 04:30:21;;;;;;;8.23;2.20;;;;;;;;;;5061430;28;20024;-82
2023/10/04 04:32:47;;;;;;;7.88;2.25;;;;;;;;;;5068238;28;20048;-80
2023/10/04 04:35:22;;;;;;;5.97;2.95;;;;;;;;;;5067525;28;20024;-83
2023/10/04 04:37:48;;;;;;;9.52;2.80;;;;;;;;;;5063804;28;20806;-83
2023/10/04 04:40:17;;;;;;;8.85;2.53;;;;;;;;;;5055923;28;20017;-82
2023/10/04 04:42:47;;;;;;;6.70;2.50;;;;;;;;;;5051927;28;20058;-79
2023/10/04 04:45:12;;;;;;;8.68;2.30;;;;;;;;;;5050132;28;20070;-82
2023/10/04 04:47:40;;;;;;;8.00;2.53;;;;;;;;;;5052187;28;22054;-81
2023/10/04 04:50:06;;;;;;;6.15;2.67;;;;;;;;;;5054891;28;20029;-83
2023/10/04 04:52:33;;;;;;;9.60;2.90;;;;;;;;;;5064434;28;20032;-80
2023/10/04 04:54:58;;;;;;;5.85;2.10;;;;;;;;;;5058171;28;20369;-82
2023/10/04 04:57:23;;;;;;;6.00;2.10;;;;;;;;;;5050765;28;20150;-81
2023/10/04 04:59:55;;;;;;;5.82;2.10;;;;;;;;;;5066584;28;20357;-78
2023/10/04 05:02:20;;;;;;;11.02;2.60;;;;;;;;;;5062015;28;20046;-78
2023/10/04 05:04:46;;;;;;;6.47;2.45;;;;;;;;;;5073365;28;20484;-78
2023/10/04 05:07:12;;;;;;;6.32;2.45;;;;;;;;;;5064033;28;20031;-78
2023/10/04 05:09:38;;;;;;;6.35;2.40;;;;;;;;;;5054693;28;20034;-78
2023/10/04 05:12:04;;;;;;;7.63;2.50;;;;;;;;;;5073207;28;20021;-78
2023/10/04 05:14:29;;;;;;;9.00;2.38;;;;;;;;;;5054902;28;20028;-78
2023/10/04 05:16:55;;;;;;;8.88;2.67;;;;;;;;;;5053814;28;20031;-78
2023/10/04 05:19:20;;;;;;;6.70;2.53;;;;;;;;;;5069790;28;20081;-78
2023/10/04 05:21:45;;;;;;;6.10;2.40;;;;;;;;;;5072379;28;20404;-78
2023/10/04 05:24:11;;;;;;;8.23;3.33;;;;;;;;;;5078433;28;20423;-78
2023/10/04 05:26:37;;;;;;;7.05;2.45;;;;;;;;;;5072670;28;20027;-78
2023/10/04 05:29:03;;;;;;;7.97;3.00;;;;;;;;;;5071982;28;21013;-78
2023/10/04 05:31:28;;;;;;;7.97;3.00;;;;;;;;;;5056946;28;20067;-78
2023/10/04 05:33:53;;;;;;;6.60;2.92;;;;;;;;;;5073789;28;20124;-78
2023/10/04 05:36:19;;;;;;;7.50;2.45;;;;;;;;;;5071171;28;20078;-78
2023/10/04 05:38:44;;;;;;;7.63;2.58;;;;;;;;;;5042843;28;21479;-78
2023/10/04 05:41:09;;;;;;;9.55;2.72;;;;;;;;;;5054550;28;20025;-78
2023/10/04 05:43:35;;;;;;;7.25;2.80;;;;;;;;;;5075177;28;20036;-78
2023/10/04 05:46:00;;;;;;;6.47;2.70;;;;;;;;;;5076453;28;20056;-78
2023/10/04 05:48:26;;;;;;;10.57;2.90;;;;;;;;;;5056506;28;20119;-78
2023/10/04 05:50:54;;;;;;;9.07;2.78;;;;;;;;;;5076263;28;20028;-78
2023/10/04 05:53:20;;;;;;;10.00;2.70;;;;;;;;;;5077924;28;20104;-78
2023/10/04 05:55:45;;;;;;;7.68;2.53;;;;;;;;;;5061931;28;20116;-78
2023/10/04 05:58:11;;;;;;;8.88;2.80;;;;;;;;;;5083750;28;20026;-78
2023/10/04 06:00:52;;;;;;;7.95;3.05;;;;;;;;;;5083777;28;20025;-78
2023/10/04 06:03:18;;;;;;;10.40;2.90;;;;;;;;;;5065853;28;20210;-78
2023/10/04 06:05:44;;;;;;;7.50;2.50;;;;;;;;;;5082712;28;20066;-78
2023/10/04 06:08:21;;;;;;;10.82;3.13;;;;;;;;;;5079625;28;20048;-78
2023/10/04 06:10:48;;;;;;;6.25;3.08;;;;;;;;;;5070448;28;20024;-78
2023/10/04 06:13:14;;;;;;;8.43;2.92;;;;;;;;;;5070726;28;20041;-78
2023/10/04 06:15:47;;;;;;;9.18;2.67;;;;;;;;;;5069327;28;20025;-78
2023/10/04 06:18:13;;;;;;;8.50;2.70;;;;;;;;;;5068135;28;20487;-78
2023/10/04 06:20:40;;;;;;;8.18;3.13;;;;;;;;;;5072069;28;20107;-82
2023/10/04 06:23:11;;;;;;;7.97;2.72;;;;;;;;;;5070956;28;20028;-82
2023/10/04 06:25:42;;;;;;;6.93;2.83;;;;;;;;;;5061404;28;20028;-83
2023/10/04 06:28:09;;;;;;;9.27;2.75;;;;;;;;;;5060922;28;20377;-82
2023/10/04 06:30:36;;;;;;;8.30;2.70;;;;;;;;;;5061797;28;20971;-81
2023/10/04 06:33:04;;;;;;;8.20;2.45;;;;;;;;;;5057262;28;20380;-83
2023/10/04 06:35:32;;;;;;;6.78;2.53;;;;;;;;;;5065665;28;20016;-81
2023/10/04 06:38:06;;;;;;;8.98;2.65;;;;;;;;;;5075264;28;20391;-82
2023/10/04 06:40:31;;;;;;;9.32;2.40;;;;;;;;;;5066521;28;20024;-83
2023/10/04 06:43:00;;;;;;;9.18;2.85;;;;;;;;;;5052217;28;20441;-82
2023/10/04 06:45:26;;;;;;;10.27;2.70;;;;;;;;;;5071322;28;20025;-82
2023/10/04 06:47:55;;;;;;;8.85;3.22;;;;;;;;;;5062820;28;20078;-82
2023/10/04 06:50:32;;;;;;;10.68;2.72;;;;;;;;;;5061698;28;20099;-80
2023/10/04 06:52:58;;;;;;;8.10;2.90;;;;;;;;;;5067727;28;20028;-83
2023/10/04 06:55:23;;;;;;;8.07;2.67;;;;;;;;;;5064344;28;20051;-83
2023/10/04 06:57:49;;;;;;;9.00;2.97;;;;;;;;;;5042489;28;20037;-81
2023/10/04 07:00:18;;;;;;;7.80;2.35;;;;;;;;;;5066794;28;20040;-83
2023/10/04 07:02:54;;;;;;;7.63;2.78;;;;;;;;;;5065807;28;20024;-79
2023/10/04 07:05:22;;;;;;;8.15;2.50;;;;;;;;;;5066511;28;20024;-83
2023/10/04 07:07:49;;;;;;;8.57;3.00;;;;;;;;;;5049023;28;20472;-82
2023/10/04 07:10:15;;;;;;;10.40;3.03;;;;;;;;;;5067296;28;20028;-82
2023/10/04 07:12:43;;;;;;;10.85;2.95;;;;;;;;;;5049716;28;20115;-83
2023/10/04 07:15:10;;;;;;;8.55;3.10;;;;;;;;;;5064705;28;20016;-83
2023/10/04 07:17:36;;;;;;;10.30;3.35;;;;;;;;;;5071792;28;20028;-82
2023/10/04 07:20:06;;;;;;;10.77;2.88;;;;;;;;;;5069187;28;20035;-77
2023/10/04 07:22:32;;;;;;;8.75;2.75;;;;;;;;;;5048837;28;20056;-77
2023/10/04 07:24:58;;;;;;;7.22;2.70;;;;;;;;;;5066055;28;20570;-77
2023/10/04 07:27:24;;;;;;;10.00;3.17;;;;;;;;;;5051045;28;20020;-77
2023/10/04 07:29:50;;;;;;;12.68;3.28;;;;;;;;;;5045988;28;20031;-78
2023/10/04 07:32:16;;;;;;;9.25;2.95;;;;;;;;;;5044002;28;20132;-78
2023/10/04 07:34:41;;;;;;;9.27;2.90;;;;;;;;;;5067170;28;20107;-75
2023/10/04 07:37:07;;;;;;;9.23;2.83;;;;;;;;;;5064856;28;20029;-75
2023/10/04 07:39:33;;;;;;;8.65;2.80;;;;;;;;;;5066253;28;20432;-77
2023/10/04 07:41:59;;;;;;;11.77;2.80;;;;;;;;;;5055315;28;20035;-77
2023/10/04 07:44:26;;;;;;;11.85;4.35;;;;;;;;;;5078231;28;20058;-78
2023/10/04 07:46:52;;;;;;;9.95;2.78;;;;;;;;;;5050529;28;20036;-77
2023/10/04 07:49:17;;;;;;;9.00;3.17;;;;;;;;;;5066988;28;20028;-77
2023/10/04 07:51:43;;;;;;;10.57;2.97;;;;;;;;;;5044309;28;20028;-77
2023/10/04 07:54:09;;;;;;;10.13;2.97;;;;;;;;;;5074974;28;20024;-83
2023/10/04 07:56:34;;;;;;;8.80;2.70;;;;;;;;;;5055002;28;20507;-83
2023/10/04 07:59:01;;;;;;;7.72;3.00;;;;;;;;;;5073996;28;20032;-84
2023/10/04 08:01:26;;;;;;;11.20;3.05;;;;;;;;;;5072571;28;20023;-83
2023/10/04 08:03:52;;;;;;;9.30;2.80;;;;;;;;;;5074687;28;20103;-83
2023/10/04 08:06:18;;;;;;;12.18;3.33;;;;;;;;;;5070804;28;20128;-84
2023/10/04 08:08:45;;;;;;;11.13;3.30;;;;;;;;;;5071987;28;20020;-83
2023/10/04 08:11:10;;;;;;;10.63;3.38;;;;;;;;;;5062018;28;20020;-83
2023/10/04 08:13:36;;;;;;;10.60;3.15;;;;;;;;;;5059174;28;20649;-84
2023/10/04 08:16:03;;;;;;;12.10;4.28;;;;;;;;;;5064244;28;20047;-83
2023/10/04 08:18:29;;;;;;;9.88;3.00;;;;;;;;;;5046848;28;20032;-84
2023/10/04 08:20:54;;;;;;;11.35;3.42;;;;;;;;;;5059841;28;20025;-83
2023/10/04 08:23:21;;;;;;;9.38;3.08;;;;;;;;;;5048031;28;20028;-84
2023/10/04 08:25:49;;;;;;;13.23;3.17;;;;;;;;;;5064470;28;20021;-83
2023/10/04 08:28:15;;;;;;;8.48;3.40;;;;;;;;;;5063180;28;20090;-83
2023/10/04 08:30:41;;;;;;;10.32;2.80;;;;;;;;;;5066098;28;20025;-83
2023/10/04 08:33:07;;;;;;;12.05;3.25;;;;;;;;;;5045325;28;20028;-81
2023/10/04 08:35:39;;;;;;;11.15;2.95;;;;;;;;;;5063927;28;20349;-83
2023/10/04 08:38:05;;;;;;;10.82;3.00;;;;;;;;;;5064119;28;20395;-84
2023/10/04 08:40:34;;;;;;;11.45;3.00;;;;;;;;;;5062167;28;20033;-75
2023/10/04 08:42:59;;;;;;;9.18;3.30;;;;;;;;;;5046640;28;20038;-75
2023/10/04 08:45:34;;;;;;;9.85;3.05;;;;;;;;;;5046623;28;20537;-75
2023/10/04 08:48:00;;;;;;;11.90;3.13;;;;;;;;;;5069807;28;20543;-75
2023/10/04 08:50:34;;;;;;;11.32;3.00;;;;;;;;;;5067038;28;20035;-82
2023/10/04 08:53:34;;;;;;;10.38;2.63;;;;;;;;;;5068130;28;20036;-83
2023/10/04 08:56:04;;;;;;;10.02;2.88;;;;;;;;;;5068484;28;20099;-84
2023/10/04 08:58:31;;;;;;;8.75;3.15;;;;;;;;;;5051171;28;20090;-77
2023/10/04 09:00:57;;;;;;;10.68;2.88;;;;;;;;;;5070111;28;20028;-78
2023/10/04 09:03:23;;;;;;;10.15;2.83;;;;;;;;;;5066701;28;20017;-78
2023/10/04 09:05:52;;;;;;;11.40;3.10;;;;;;;;;;5066867;28;20037;-78
2023/10/04 09:08:18;;;;;;;11.73;3.08;;;;;;;;;;5065341;28;20029;-78
2023/10/04 09:10:44;;;;;;;10.25;2.88;;;;;;;;;;5051229;28;20043;-78
2023/10/04 09:13:10;;;;;;;8.85;2.70;;;;;;;;;;5067717;28;20024;-78
2023/10/04 09:15:36;;;;;;;8.63;3.45;;;;;;;;;;5066404;28;20590;-78
2023/10/04 09:18:03;;;;;;;11.77;3.10;;;;;;;;;;5048310;28;20374;-78
2023/10/04 09:20:29;;;;;;;12.15;4.13;;;;;;;;;;5046062;28;20033;-78
2023/10/04 09:22:55;;;;;;;15.02;3.33;;;;;;;;;;5066033;28;20111;-78
2023/10/04 09:25:21;;;;;;;13.82;3.42;;;;;;;;;;5050121;28;20112;-78
2023/10/04 09:27:56;;;;;;;13.85;3.40;;;;;;;;;;5066374;28;20486;-78
2023/10/04 09:30:23;;;;;;;10.13;2.95;;;;;;;;;;5067133;28;20078;-78
2023/10/04 09:32:51;;;;;;;9.38;3.28;;;;;;;;;;5067731;28;20128;-78
2023/10/04 09:35:19;;;;;;;10.57;2.83;;;;;;;;;;5074823;28;20077;-78
2023/10/04 09:37:49;;;;;;;12.80;3.13;;;;;;;;;;5071737;28;20032;-78
2023/10/04 09:40:17;;;;;;;10.93;3.60;;;;;;;;;;5056121;28;20032;-78
2023/10/04 09:42:55;;;;;;;9.68;3.33;;;;;;;;;;5076203;28;20033;-78
2023/10/04 09:45:23;;;;;;;10.88;3.35;;;;;;;;;;5077917;28;20027;-78
2023/10/04 09:47:53;;;;;;;10.25;3.42;;;;;;;;;;5080721;28;20059;-78
2023/10/04 09:50:23;;;;;;;12.57;3.20;;;;;;;;;;5060026;28;20040;-78
2023/10/04 09:52:49;;;;;;;12.73;3.60;;;;;;;;;;5074656;28;20031;-78
2023/10/04 09:55:15;;;;;;;9.70;3.30;;;;;;;;;;5082333;28;20085;-78
2023/10/04 09:57:43;;;;;;;10.13;2.95;;;;;;;;;;5063652;28;20111;-78
2023/10/04 10:00:22;;;;;;;9.65;2.83;;;;;;;;;;5056058;28;20116;-78
2023/10/04 10:02:52;;;;;;;9.52;3.15;;;;;;;;;;5054129;28;20028;-78
2023/10/04 10:05:27;;;;;;;10.27;3.33;;;;;;;;;;5052651;28;20115;-78
2023/10/04 10:08:04;;;;;;;8.95;3.05;;;;;;;;;;5074269;28;20023;-78
2023/10/04 10:10:33;;;;;;;16.17;3.65;;;;;;;;;;5064600;28;20028;-75
2023/10/04 10:12:59;;;;;;;10.18;2.97;;;;;;;;;;5066832;28;20021;-75
2023/10/04 10:15:24;;;;;;;9.82;3.42;;;;;;;;;;5073682;28;20017;-75
2023/10/04 10:17:51;;;;;;;10.88;2.80;;;;;;;;;;5070770;28;20506;-76
2023/10/04 10:20:19;;;;;;;10.60;2.90;;;;;;;;;;5069142;28;20116;-78
2023/10/04 10:22:57;;;;;;;9.25;3.30;;;;;;;;;;5070550;28;20354;-78
2023/10/04 10:25:23;;;;;;;9.23;3.22;;;;;;;;;;5068456;28;20411;-78
2023/10/04 10:27:49;;;;;;;9.88;3.40;;;;;;;;;;5066564;28;20063;-78
2023/10/04 10:30:16;;;;;;;13.48;3.50;;;;;;;;;;5067067;28;20021;-78
2023/10/04 10:32:55;;;;;;;10.90;2.97;;;;;;;;;;5051957;28;20062;-78
2023/10/04 10:35:59;;;;;;;11.25;3.42;;;;;;;;;;5070446;28;20017;-78
2023/10/04 10:38:30;;;;;;;13.25;3.50;;;;;;;;;;5072548;28;20028;-78
2023/10/04 10:40:55;;;;;;;15.27;3.78;;;;;;;;;;5055977;28;20444;-78
2023/10/04 10:43:21;;;;;;;7.90;3.38;;;;;;;;;;5055302;28;20036;-78
2023/10/04 10:45:46;;;;;;;8.48;3.47;;;;;;;;;;5053581;28;20039;-78
2023/10/04 10:48:12;;;;;;;8.93;3.20;;;;;;;;;;5054587;28;20029;-78
2023/10/04 10:50:40;;;;;;;9.55;3.67;;;;;;;;;;5075375;28;20111;-78
2023/10/04 10:53:10;;;;;;;9.52;3.95;;;;;;;;;;5068431;28;20408;-78
2023/10/04 10:55:39;;;;;;;9.65;3.80;;;;;;;;;;5052822;28;20064;-78
2023/10/04 10:58:05;;;;;;;9.63;3.83;;;;;;;;;;5078182;28;20476;-78
2023/10/04 11:00:33;;;;;;;11.18;3.85;;;;;;;;;;5055068;28;20111;-78
2023/10/04 11:03:00;;;;;;;9.43;3.60;;;;;;;;;;5069439;28;20032;-78
2023/10/04 11:05:26;;;;;;;10.75;4.18;;;;;;;;;;5068266;28;20037;-79
2023/10/04 11:07:54;;;;;;;12.52;3.92;;;;;;;;;;5068661;28;20396;-78
2023/10/04 11:10:21;;;;;;;8.98;4.13;;;;;;;;;;5071691;28;20024;-78
2023/10/04 11:12:47;;;;;;;11.32;4.03;;;;;;;;;;5055162;28;20111;-78
2023/10/04 11:15:15;;;;;;;10.68;4.10;;;;;;;;;;5055465;28;20082;-78
2023/10/04 11:17:40;;;;;;;10.57;3.78;;;;;;;;;;5071201;28;20385;-79
2023/10/04 11:20:09;;;;;;;9.93;4.20;;;;;;;;;;5050096;28;20021;-79
2023/10/04 11:22:37;;;;;;;12.70;4.20;;;;;;;;;;5072714;28;20458;-79
2023/10/04 11:25:03;;;;;;;12.77;3.92;;;;;;;;;;5069819;28;20119;-78
2023/10/04 11:27:29;;;;;;;11.63;3.63;;;;;;;;;;5052739;28;20032;-78
2023/10/04 11:29:55;;;;;;;12.95;4.40;;;;;;;;;;5051946;28;20436;-75
2023/10/04 11:32:21;;;;;;;11.82;4.00;;;;;;;;;;5066111;28;20039;-75
2023/10/04 11:34:46;;;;;;;12.50;4.20;;;;;;;;;;5048440;28;20028;-75
2023/10/04 11:37:13;;;;;;;10.77;3.72;;;;;;;;;;5067139;28;20020;-75
2023/10/04 11:39:39;;;;;;;7.95;3.42;;;;;;;;;;5065230;28;20488;-76
2023/10/04 11:42:15;;;;;;;10.20;4.07;;;;;;;;;;5068044;28;20082;-77
2023/10/04 11:44:41;;;;;;;9.07;4.07;;;;;;;;;;5047959;28;20028;-76
2023/10/04 11:47:10;;;;;;;9.32;3.65;;;;;;;;;;5071918;28;20513;-78
2023/10/04 11:49:36;;;;;;;8.45;3.30;;;;;;;;;;5065663;28;20104;-78
2023/10/04 11:52:06;;;;;;;9.65;3.50;;;;;;;;;;5066713;28;20036;-78
2023/10/04 11:54:40;;;;;;;9.93;3.45;;;;;;;;;;5047559;28;20523;-78
2023/10/04 11:57:06;;;;;;;11.95;4.00;;;;;;;;;;5051224;28;20119;-78
2023/10/04 11:59:32;;;;;;;10.10;3.78;;;;;;;;;;5054071;28;20032;-78
2023/10/04 12:01:57;;;;;;;10.25;3.45;;;;;;;;;;5076490;28;20094;-78
2023/10/04 12:04:23;;;;;;;8.32;3.20;;;;;;;;;;5067874;28;20444;-78
2023/10/04 12:07:03;;;;;;;9.18;3.08;;;;;;;;;;5062416;28;20548;-79
2023/10/04 12:09:31;;;;;;;8.40;2.97;;;;;;;;;;5070706;28;20526;-78
2023/10/04 12:11:58;;;;;;;14.65;3.63;;;;;;;;;;5075435;28;20012;-78
2023/10/04 12:14:23;;;;;;;9.27;3.13;;;;;;;;;;5072129;28;20101;-78
2023/10/04 12:16:49;;;;;;;9.80;3.30;;;;;;;;;;5071082;28;20033;-79
2023/10/04 12:19:14;;;;;;;12.40;3.58;;;;;;;;;;5051882;28;20024;-78
2023/10/04 12:21:40;;;;;;;9.77;3.20;;;;;;;;;;5054570;28;20480;-78
2023/10/04 12:24:07;;;;;;;13.40;3.30;;;;;;;;;;5055862;28;20404;-78
2023/10/04 12:26:33;;;;;;;9.13;3.08;;;;;;;;;;5063419;28;20040;-78
2023/10/04 12:28:58;;;;;;;7.40;2.65;;;;;;;;;;5054164;28;20050;-78
2023/10/04 12:31:24;;;;;;;8.65;2.22;;;;;;;;;;5048177;28;20076;-78
2023/10/04 12:33:51;;;;;;;10.68;3.10;;;;;;;;;;5069220;28;20035;-79
2023/10/04 12:36:17;;;;;;;7.90;2.40;;;;;;;;;;5069446;28;20021;-78
2023/10/04 12:38:42;;;;;;;8.23;2.17;;;;;;;;;;5070493;28;20025;-75
2023/10/04 12:41:07;;;;;;;7.07;2.22;;;;;;;;;;5064122;28;20468;-75
2023/10/04 12:43:33;;;;;;;7.63;2.35;;;;;;;;;;5047263;28;20028;-75
2023/10/04 12:45:58;;;;;;;7.28;2.60;;;;;;;;;;5051526;28;20095;-76
2023/10/04 12:48:23;;;;;;;7.28;2.25;;;;;;;;;;5063164;28;20029;-86
2023/10/04 12:50:49;;;;;;;6.20;1.98;;;;;;;;;;5049182;28;20073;-86
2023/10/04 12:53:16;;;;;;;7.65;2.65;;;;;;;;;;5054409;28;20082;-86
2023/10/04 12:55:43;;;;;;;7.80;2.50;;;;;;;;;;5054796;28;20028;-85
2023/10/04 12:58:08;;;;;;;11.18;2.75;;;;;;;;;;5070365;28;20037;-86
2023/10/04 13:00:33;;;;;;;9.75;2.40;;;;;;;;;;5068804;28;20050;-86
2023/10/04 13:03:00;;;;;;;8.35;2.60;;;;;;;;;;5070071;28;20551;-86
2023/10/04 13:05:26;;;;;;;11.18;2.70;;;;;;;;;;5070805;28;20391;-86
2023/10/04 13:07:52;;;;;;;9.95;2.40;;;;;;;;;;5078019;28;20042;-86
2023/10/04 13:10:18;;;;;;;7.78;2.17;;;;;;;;;;5066944;28;20029;-86
2023/10/04 13:12:43;;;;;;;8.77;2.70;;;;;;;;;;5077045;28;20017;-78
2023/10/04 13:15:10;;;;;;;7.57;2.20;;;;;;;;;;5064859;28;20495;-79
2023/10/04 13:17:36;;;;;;;8.73;2.53;;;;;;;;;;5052021;28;20028;-78
2023/10/04 13:20:03;;;;;;;8.18;2.22;;;;;;;;;;5067031;28;20043;-78
2023/10/04 13:22:29;;;;;;;8.50;2.70;;;;;;;;;;5072296;28;20025;-79
2023/10/04 13:24:54;;;;;;;9.25;2.70;;;;;;;;;;5056614;28;20061;-79
2023/10/04 13:27:20;;;;;;;7.03;2.50;;;;;;;;;;5075364;28;20023;-79
2023/10/04 13:29:45;;;;;;;9.93;2.92;;;;;;;;;;5056899;28;20029;-79
2023/10/04 13:32:15;;;;;;;13.40;2.90;;;;;;;;;;5067842;28;20029;-78
2023/10/04 13:34:41;;;;;;;12.70;2.80;;;;;;;;;;5074234;28;20031;-79
2023/10/04 13:37:07;;;;;;;9.80;2.88;;;;;;;;;;5083653;28;20020;-79
2023/10/04 13:39:32;;;;;;;7.50;2.45;;;;;;;;;;5085927;28;20056;-79
2023/10/04 13:41:57;;;;;;;9.05;2.80;;;;;;;;;;5074506;28;20098;-85
2023/10/04 13:44:23;;;;;;;7.78;2.35;;;;;;;;;;5070490;28;20476;-87
2023/10/04 13:46:49;;;;;;;8.98;2.70;;;;;;;;;;5068663;28;20048;-86
2023/10/04 13:49:15;;;;;;;12.18;2.58;;;;;;;;;;5056209;28;20090;-79
2023/10/04 13:51:42;;;;;;;7.57;2.30;;;;;;;;;;5072929;28;20093;-79
2023/10/04 13:54:08;;;;;;;6.18;1.98;;;;;;;;;;5068557;28;20387;-79
2023/10/04 13:56:33;;;;;;;9.32;2.10;;;;;;;;;;5068186;28;20108;-79
2023/10/04 13:58:58;;;;;;;6.38;2.17;;;;;;;;;;5073828;28;20031;-79
2023/10/04 14:01:24;;;;;;;7.22;1.80;;;;;;;;;;5068864;28;20024;-79
2023/10/04 14:03:51;;;;;;;6.35;2.22;;;;;;;;;;5070325;28;20476;-79
2023/10/04 14:06:16;;;;;;;6.15;2.03;;;;;;;;;;5077697;28;20086;-79
2023/10/04 14:08:42;;;;;;;14.95;2.70;;;;;;;;;;5062156;28;20478;-86
2023/10/04 14:11:08;;;;;;;7.65;1.98;;;;;;;;;;5066914;28;20033;-86
2023/10/04 14:13:33;;;;;;;8.95;2.47;;;;;;;;;;5053729;28;20081;-79
2023/10/04 14:16:01;;;;;;;9.13;2.08;;;;;;;;;;5053780;28;20483;-79
2023/10/04 14:18:26;;;;;;;10.48;2.10;;;;;;;;;;5071622;28;20115;-79
2023/10/04 14:20:56;;;;;;;7.45;2.63;;;;;;;;;;5056499;28;20547;-79
2023/10/04 14:23:21;;;;;;;9.57;2.25;;;;;;;;;;5073277;28;20029;-79
2023/10/04 14:25:49;;;;;;;4.57;1.90;;;;;;;;;;5065703;28;20377;-79
2023/10/04 14:28:14;;;;;;;6.88;2.00;;;;;;;;;;5066996;28;20087;-79
2023/10/04 14:30:40;;;;;;;7.70;2.10;;;;;;;;;;5067057;28;20060;-79
2023/10/04 14:33:05;;;;;;;7.25;2.03;;;;;;;;;;5054400;28;20020;-79
2023/10/04 14:35:30;;;;;;;7.35;2.55;;;;;;;;;;5040011;28;20374;-79
2023/10/04 14:37:56;;;;;;;6.32;1.88;;;;;;;;;;5044696;28;20476;-79
2023/10/04 14:40:28;;;;;;;7.50;1.90;;;;;;;;;;5064651;28;20125;-79
2023/10/04 14:42:54;;;;;;;8.32;2.20;;;;;;;;;;5060008;28;20531;-79